createdAt,value
2019-01-26T00:00:29.062Z,8.43
2019-01-26T00:02:57.149Z,8.80
2019-01-26T00:05:25.215Z,14.40
2019-01-26T00:07:53.289Z,12.27
2019-01-26T00:10:21.712Z,11.57
2019-01-26T00:12:49.804Z,10.87
2019-01-26T00:15:18.220Z,16.00
2019-01-26T00:17:46.628Z,13.57
2019-01-26T00:20:15.042Z,13.03
2019-01-26T00:22:43.450Z,12.47
2019-01-26T00:25:11.868Z,12.60
2019-01-26T00:27:40.271Z,13.47
2019-01-26T00:30:14.521Z,13.87
2019-01-26T00:32:42.917Z,10.70
2019-01-26T00:35:11.664Z,9.77
2019-01-26T00:37:40.061Z,11.53
2019-01-26T00:40:11.316Z,14.83
2019-01-26T00:42:39.733Z,13.07
2019-01-26T00:45:11.140Z,9.03
2019-01-26T00:47:39.547Z,8.77
2019-01-26T00:50:09.200Z,9.67
2019-01-26T00:52:37.608Z,8.07
2019-01-26T00:55:08.188Z,9.07
2019-01-26T00:57:36.263Z,9.33
2019-01-26T01:00:08.842Z,7.23
2019-01-26T01:02:56.578Z,13.80
2019-01-26T01:05:24.659Z,11.13
2019-01-26T01:07:53.129Z,11.23
2019-01-26T01:10:21.762Z,12.13
2019-01-26T01:12:50.276Z,12.50
2019-01-26T01:15:19.904Z,6.53
2019-01-26T01:17:48.304Z,10.03
2019-01-26T01:20:17.468Z,10.10
2019-01-26T01:22:45.869Z,5.70
2019-01-26T01:25:14.712Z,6.67
2019-01-26T01:27:43.116Z,8.00
2019-01-26T01:30:14.609Z,7.30
2019-01-26T01:32:43.175Z,8.27
2019-01-26T01:35:13.321Z,6.87
2019-01-26T01:38:01.081Z,8.47
2019-01-26T01:40:29.484Z,7.97
2019-01-26T01:42:57.607Z,7.57
2019-01-26T01:45:25.689Z,8.70
2019-01-26T01:47:54.084Z,8.60
2019-01-26T01:50:22.764Z,5.60
2019-01-26T01:52:51.174Z,4.47
2019-01-26T01:55:19.609Z,2.43
2019-01-26T01:57:47.988Z,4.70
2019-01-26T02:00:17.616Z,4.10
2019-01-26T02:02:46.016Z,5.03
2019-01-26T02:05:14.431Z,6.33
2019-01-26T02:07:42.903Z,5.70
2019-01-26T02:10:14.448Z,5.47
2019-01-26T02:12:42.855Z,3.70
2019-01-26T02:15:12.391Z,6.27
2019-01-26T02:17:41.125Z,4.27
2019-01-26T02:20:13.516Z,5.67
2019-01-26T02:22:42.004Z,5.93
2019-01-26T02:25:10.345Z,7.13
2019-01-26T02:27:38.752Z,4.83
2019-01-26T02:30:10.467Z,4.10
2019-01-26T02:32:38.879Z,3.37
2019-01-26T02:35:07.861Z,5.17
2019-01-26T02:37:36.268Z,4.07
2019-01-26T02:40:08.008Z,3.80
2019-01-26T02:42:36.425Z,3.47
2019-01-26T02:45:07.065Z,4.33
2019-01-26T02:47:35.480Z,5.37
2019-01-26T02:50:06.015Z,5.67
2019-01-26T02:52:34.421Z,5.13
2019-01-26T02:55:02.819Z,3.60
2019-01-26T02:57:31.234Z,6.07
2019-01-26T02:59:59.628Z,3.17
2019-01-26T03:02:28.335Z,3.20
2019-01-26T03:04:56.736Z,4.57
2019-01-26T03:07:25.212Z,2.17
2019-01-26T03:09:53.607Z,3.00
2019-01-26T03:12:22.017Z,3.83
2019-01-26T03:14:50.411Z,3.73
2019-01-26T03:17:18.832Z,3.20
2019-01-26T03:19:47.217Z,3.87
2019-01-26T03:22:15.644Z,3.20
2019-01-26T03:24:44.045Z,2.73
2019-01-26T03:27:12.452Z,4.10
2019-01-26T03:29:40.517Z,3.93
2019-01-26T03:32:08.948Z,2.83
2019-01-26T03:34:37.336Z,2.23
2019-01-26T03:37:05.760Z,2.67
2019-01-26T03:39:34.167Z,2.33
2019-01-26T03:42:02.583Z,4.20
2019-01-26T03:44:30.984Z,5.93
2019-01-26T03:46:59.405Z,7.63
2019-01-26T03:49:27.821Z,3.10
2019-01-26T03:51:56.219Z,2.03
2019-01-26T03:54:24.897Z,1.50
2019-01-26T03:56:53.570Z,2.13
2019-01-26T03:59:21.984Z,1.50
2019-01-26T04:01:50.427Z,5.63
2019-01-26T04:04:18.967Z,2.17
2019-01-26T04:06:47.036Z,4.17
2019-01-26T04:09:15.452Z,1.43
2019-01-26T04:11:43.538Z,1.30
2019-01-26T04:14:11.948Z,1.00
2019-01-26T04:16:40.354Z,0.97
2019-01-26T04:19:08.788Z,1.77
2019-01-26T04:21:37.202Z,1.33
2019-01-26T04:24:05.669Z,2.00
2019-01-26T04:26:34.072Z,3.03
2019-01-26T04:29:02.533Z,1.57
2019-01-26T04:31:30.924Z,0.70
2019-01-26T04:33:59.351Z,1.97
2019-01-26T04:36:27.749Z,1.93
2019-01-26T04:38:56.181Z,0.97
2019-01-26T04:41:24.582Z,1.07
2019-01-26T04:43:52.989Z,0.97
2019-01-26T04:46:21.056Z,1.60
2019-01-26T04:48:49.540Z,0.93
2019-01-26T04:51:17.946Z,1.00
2019-01-26T04:53:46.364Z,1.30
2019-01-26T04:56:14.771Z,2.43
2019-01-26T04:58:43.236Z,0.63
2019-01-26T05:01:11.639Z,1.43
2019-01-26T05:03:40.056Z,0.60
2019-01-26T05:06:08.459Z,0.80
2019-01-26T05:08:37.028Z,0.87
2019-01-26T05:11:05.442Z,0.20
2019-01-26T05:13:33.845Z,0.60
2019-01-26T05:16:02.240Z,0.97
2019-01-26T05:18:30.640Z,0.60
2019-01-26T05:20:59.066Z,0.90
2019-01-26T05:23:27.473Z,0.53
2019-01-26T05:25:55.552Z,1.67
2019-01-26T05:28:23.624Z,0.50
2019-01-26T05:30:52.048Z,0.40
2019-01-26T05:33:20.457Z,2.20
2019-01-26T05:35:48.865Z,1.07
2019-01-26T05:38:17.260Z,2.83
2019-01-26T05:40:45.676Z,1.40
2019-01-26T05:43:14.076Z,4.60
2019-01-26T05:45:42.488Z,2.47
2019-01-26T05:48:10.956Z,1.70
2019-01-26T05:50:39.390Z,1.40
2019-01-26T05:53:07.789Z,1.27
2019-01-26T05:55:35.939Z,1.27
2019-01-26T05:58:04.781Z,1.20
2019-01-26T06:00:33.648Z,2.60
2019-01-26T06:03:02.053Z,1.10
2019-01-26T06:05:30.170Z,3.00
2019-01-26T06:07:58.269Z,3.23
2019-01-26T06:10:26.732Z,0.97
2019-01-26T06:12:54.875Z,0.60
2019-01-26T06:15:22.948Z,1.20
2019-01-26T06:17:54.976Z,1.03
2019-01-26T06:20:21.287Z,3.10
2019-01-26T06:22:49.751Z,1.43
2019-01-26T06:25:19.904Z,1.97
2019-01-26T06:27:48.607Z,1.17
2019-01-26T06:30:19.352Z,1.07
2019-01-26T06:32:47.759Z,0.63
2019-01-26T06:35:15.842Z,1.50
2019-01-26T06:37:43.925Z,0.70
2019-01-26T06:40:15.081Z,0.33
2019-01-26T06:42:43.548Z,1.43
2019-01-26T06:45:14.297Z,1.90
2019-01-26T06:47:42.872Z,1.80
2019-01-26T06:50:14.728Z,1.50
2019-01-26T06:52:43.132Z,0.33
2019-01-26T06:55:12.291Z,1.23
2019-01-26T06:57:40.696Z,0.70
2019-01-26T07:00:29.721Z,4.17
2019-01-26T07:02:58.122Z,0.80
2019-01-26T07:05:28.191Z,0.50
2019-01-26T07:07:56.597Z,0.90
2019-01-26T07:10:24.680Z,6.97
2019-01-26T07:12:53.087Z,8.60
2019-01-26T07:15:21.487Z,3.07
2019-01-26T07:17:49.908Z,1.30
2019-01-26T07:20:18.875Z,1.13
2019-01-26T07:22:47.291Z,1.13
2019-01-26T07:25:15.764Z,0.83
2019-01-26T07:27:44.169Z,1.20
2019-01-26T07:30:21.308Z,1.47
2019-01-26T07:32:49.787Z,3.23
2019-01-26T07:35:18.520Z,0.73
2019-01-26T07:37:46.924Z,4.40
2019-01-26T07:40:20.779Z,4.40
2019-01-26T07:42:49.299Z,9.27
2019-01-26T07:45:18.649Z,3.40
2019-01-26T07:47:47.221Z,2.00
2019-01-26T07:50:21.525Z,4.00
2019-01-26T07:52:49.957Z,4.23
2019-01-26T07:55:18.643Z,2.30
2019-01-26T07:57:47.033Z,2.00
2019-01-26T08:00:21.423Z,0.70
2019-01-26T08:02:49.507Z,0.60
2019-01-26T08:05:17.945Z,0.50
2019-01-26T08:07:46.528Z,0.60
2019-01-26T08:10:17.867Z,4.87
2019-01-26T08:12:46.370Z,1.37
2019-01-26T08:15:17.870Z,0.57
2019-01-26T08:17:45.951Z,0.77
2019-01-26T08:20:15.295Z,0.63
2019-01-26T08:22:43.710Z,0.40
2019-01-26T08:25:12.436Z,0.40
2019-01-26T08:27:40.519Z,0.30
2019-01-26T08:30:11.981Z,0.30
2019-01-26T08:32:40.404Z,0.27
2019-01-26T08:35:09.184Z,0.17
2019-01-26T08:37:37.592Z,0.17
2019-01-26T08:40:11.512Z,0.30
2019-01-26T08:42:40.364Z,1.90
2019-01-26T08:45:11.323Z,0.20
2019-01-26T08:47:39.996Z,0.53
2019-01-26T08:50:13.984Z,5.33
2019-01-26T08:52:42.667Z,0.40
2019-01-26T08:55:17.839Z,0.20
2019-01-26T08:57:41.525Z,0.53
2019-01-26T09:00:17.259Z,0.17
2019-01-26T09:02:53.648Z,0.57
2019-01-26T09:05:24.325Z,0.40
2019-01-26T09:07:52.720Z,0.60
2019-01-26T09:10:21.143Z,0.20
2019-01-26T09:12:49.195Z,0.43
2019-01-26T09:15:17.604Z,0.20
2019-01-26T09:17:45.691Z,0.33
2019-01-26T09:20:16.238Z,0.10
2019-01-26T09:22:44.902Z,0.80
2019-01-26T09:25:14.148Z,0.10
2019-01-26T09:27:42.716Z,0.10
2019-01-26T09:30:19.549Z,1.90
2019-01-26T09:32:47.939Z,5.10
2019-01-26T09:35:16.480Z,0.10
2019-01-26T09:37:45.109Z,0.10
2019-01-26T09:40:16.609Z,1.30
2019-01-26T09:42:45.009Z,0.23
2019-01-26T09:45:16.779Z,0.23
2019-01-26T09:47:45.352Z,0.30
2019-01-26T09:50:14.600Z,0.90
2019-01-26T09:52:42.688Z,0.10
2019-01-26T09:55:11.545Z,0.27
2019-01-26T09:57:39.946Z,0.00
2019-01-26T10:00:14.000Z,0.07
2019-01-26T10:02:42.402Z,0.10
2019-01-26T10:05:11.085Z,0.20
2019-01-26T10:07:39.152Z,0.10
2019-01-26T10:10:16.146Z,0.20
2019-01-26T10:12:44.558Z,0.20
2019-01-26T10:15:16.001Z,0.10
2019-01-26T10:17:46.084Z,0.70
2019-01-26T10:20:22.824Z,0.20
2019-01-26T10:22:51.210Z,0.10
2019-01-26T10:25:19.692Z,0.20
2019-01-26T10:27:48.204Z,0.20
2019-01-26T10:30:26.770Z,0.20
2019-01-26T10:32:55.165Z,0.07
2019-01-26T10:35:25.212Z,0.40
2019-01-26T10:37:53.608Z,0.30
2019-01-26T10:40:38.596Z,0.13
2019-01-26T10:43:07.083Z,0.97
2019-01-26T10:45:35.161Z,1.23
2019-01-26T10:48:03.634Z,1.43
2019-01-26T10:50:31.715Z,0.10
2019-01-26T10:53:00.109Z,0.10
2019-01-26T10:55:28.511Z,0.13
2019-01-26T10:57:56.912Z,0.10
2019-01-26T11:00:25.487Z,0.13
2019-01-26T11:02:53.886Z,1.17
2019-01-26T11:05:22.456Z,0.57
2019-01-26T11:07:50.999Z,1.20
2019-01-26T11:10:19.667Z,0.37
2019-01-26T11:12:48.088Z,0.40
2019-01-26T11:15:16.519Z,0.40
2019-01-26T11:17:44.923Z,0.30
2019-01-26T11:20:15.331Z,2.83
2019-01-26T11:22:44.136Z,0.20
2019-01-26T11:25:13.464Z,0.17
2019-01-26T11:27:41.884Z,0.30
2019-01-26T11:30:20.819Z,0.60
2019-01-26T11:32:49.560Z,1.07
2019-01-26T11:35:22.980Z,0.13
2019-01-26T11:37:51.395Z,1.40
2019-01-26T11:40:21.112Z,0.30
2019-01-26T11:42:49.587Z,1.10
2019-01-26T11:45:28.408Z,0.80
2019-01-26T11:47:58.407Z,0.20
2019-01-26T11:50:28.444Z,2.67
2019-01-26T11:52:56.856Z,0.30
2019-01-26T11:55:26.688Z,1.17
2019-01-26T11:57:55.156Z,1.93
2019-01-26T12:00:41.673Z,1.90
2019-01-26T12:03:11.724Z,0.60
2019-01-26T12:05:41.769Z,0.60
2019-01-26T12:08:10.176Z,1.93
2019-01-26T12:10:38.239Z,18.93
2019-01-26T12:13:06.645Z,3.67
2019-01-26T12:15:35.049Z,0.50
2019-01-26T12:18:03.461Z,3.60
2019-01-26T12:20:31.533Z,4.10
2019-01-26T12:22:59.936Z,0.73
2019-01-26T12:25:28.340Z,0.50
2019-01-26T12:27:56.752Z,1.27
2019-01-26T12:30:26.398Z,0.50
2019-01-26T12:32:54.944Z,0.30
2019-01-26T12:35:23.344Z,0.63
2019-01-26T12:37:51.737Z,1.00
2019-01-26T12:40:20.151Z,0.70
2019-01-26T12:42:48.546Z,0.30
2019-01-26T12:45:19.683Z,0.30
2019-01-26T12:47:48.080Z,0.30
2019-01-26T12:50:16.623Z,3.07
2019-01-26T12:52:45.029Z,0.30
2019-01-26T12:55:14.653Z,0.50
2019-01-26T12:57:43.197Z,0.23
2019-01-26T13:00:20.346Z,4.33
2019-01-26T13:02:49.484Z,0.47
2019-01-26T13:05:18.093Z,0.30
2019-01-26T13:07:46.560Z,0.23
2019-01-26T13:10:27.618Z,0.83
2019-01-26T13:12:56.076Z,0.20
2019-01-26T13:15:24.159Z,0.40
2019-01-26T13:17:52.570Z,1.90
2019-01-26T13:20:20.985Z,0.45
2019-01-26T13:22:49.116Z,0.20
2019-01-26T13:25:18.176Z,0.43
2019-01-26T13:27:46.645Z,0.75
2019-01-26T13:30:34.384Z,0.67
2019-01-26T13:33:02.777Z,0.40
2019-01-26T13:35:31.188Z,2.13
2019-01-26T13:37:59.583Z,0.30
2019-01-26T13:40:30.848Z,0.30
2019-01-26T13:42:58.924Z,0.30
2019-01-26T13:45:27.404Z,0.63
2019-01-26T13:47:55.800Z,0.20
2019-01-26T13:50:24.206Z,0.20
2019-01-26T13:52:54.771Z,0.13
2019-01-26T13:55:23.232Z,0.27
2019-01-26T13:57:51.363Z,0.30
2019-01-26T14:00:28.083Z,0.17
2019-01-26T14:02:56.551Z,0.75
2019-01-26T14:05:25.640Z,0.23
2019-01-26T14:07:54.103Z,1.90
2019-01-26T14:10:24.256Z,0.10
2019-01-26T14:12:52.725Z,0.40
2019-01-26T14:15:22.929Z,0.40
2019-01-26T14:17:51.359Z,0.30
2019-01-26T14:20:24.976Z,0.30
2019-01-26T14:22:53.640Z,0.20
2019-01-26T14:25:21.799Z,0.20
2019-01-26T14:27:49.860Z,0.87
2019-01-26T14:30:23.948Z,0.50
2019-01-26T14:32:52.827Z,0.20
2019-01-26T14:35:21.392Z,0.20
2019-01-26T14:37:49.793Z,0.47
2019-01-26T14:40:18.343Z,11.90
2019-01-26T14:42:46.408Z,4.20
2019-01-26T14:45:17.547Z,0.40
2019-01-26T14:47:46.219Z,0.50
2019-01-26T14:50:18.928Z,0.30
2019-01-26T14:52:47.002Z,0.30
2019-01-26T14:55:24.013Z,0.30
2019-01-26T14:57:52.552Z,1.17
2019-01-26T15:00:24.699Z,1.10
2019-01-26T15:02:53.096Z,0.40
2019-01-26T15:05:21.840Z,0.20
2019-01-26T15:07:50.102Z,0.37
2019-01-26T15:10:18.500Z,0.77
2019-01-26T15:12:46.908Z,0.53
2019-01-26T15:15:17.665Z,0.43
2019-01-26T15:17:46.241Z,0.80
2019-01-26T15:20:32.189Z,1.00
2019-01-26T15:23:00.593Z,0.93
2019-01-26T15:25:28.676Z,0.67
2019-01-26T15:27:57.147Z,0.60
2019-01-26T15:30:26.595Z,0.20
2019-01-26T15:32:54.999Z,0.40
2019-01-26T15:35:23.479Z,0.73
2019-01-26T15:37:51.895Z,1.17
2019-01-26T15:40:20.569Z,0.47
2019-01-26T15:42:48.981Z,0.60
2019-01-26T15:45:20.705Z,0.60
2019-01-26T15:47:49.170Z,0.40
2019-01-26T15:50:17.572Z,0.70
2019-01-26T15:52:46.055Z,0.27
2019-01-26T15:55:22.632Z,0.40
2019-01-26T15:58:10.374Z,0.60
2019-01-26T16:00:39.928Z,0.30
2019-01-26T16:03:08.663Z,0.17
2019-01-26T16:05:37.085Z,0.20
2019-01-26T16:08:06.503Z,0.20
2019-01-26T16:10:34.904Z,1.03
2019-01-26T16:13:03.325Z,0.37
2019-01-26T16:15:34.356Z,0.43
2019-01-26T16:18:03.039Z,0.47
2019-01-26T16:20:31.608Z,0.50
2019-01-26T16:23:00.092Z,0.53
2019-01-26T16:25:28.969Z,0.40
2019-01-26T16:27:57.366Z,1.30
2019-01-26T16:30:28.108Z,2.97
2019-01-26T16:32:56.516Z,0.50
2019-01-26T16:35:24.978Z,0.60
2019-01-26T16:37:53.392Z,0.93
2019-01-26T16:40:30.020Z,0.90
2019-01-26T16:42:58.420Z,0.47
2019-01-26T16:45:32.496Z,0.70
2019-01-26T16:48:00.977Z,1.13
2019-01-26T16:50:31.318Z,0.57
2019-01-26T16:52:59.427Z,1.60
2019-01-26T16:55:27.883Z,1.37
2019-01-26T16:57:56.627Z,1.70
2019-01-26T17:00:41.478Z,1.17
2019-01-26T17:03:09.891Z,1.43
2019-01-26T17:05:38.409Z,1.70
2019-01-26T17:08:07.783Z,0.70
2019-01-26T17:10:36.392Z,0.60
2019-01-26T17:13:05.711Z,0.73
2019-01-26T17:15:34.165Z,0.50
2019-01-26T17:18:02.831Z,0.63
2019-01-26T17:20:40.013Z,0.43
2019-01-26T17:23:08.593Z,0.30
2019-01-26T17:25:36.983Z,0.43
2019-01-26T17:28:05.970Z,1.07
2019-01-26T17:30:41.985Z,0.87
2019-01-26T17:33:10.457Z,0.40
2019-01-26T17:35:38.863Z,0.37
2019-01-26T17:38:07.484Z,1.03
2019-01-26T17:40:35.872Z,0.40
2019-01-26T17:43:04.549Z,3.60
2019-01-26T17:45:33.056Z,0.40
2019-01-26T17:48:01.140Z,0.30
2019-01-26T17:50:29.550Z,1.27
2019-01-26T17:52:57.615Z,0.30
2019-01-26T17:55:27.018Z,0.30
2019-01-26T17:57:55.428Z,0.30
2019-01-26T18:00:27.992Z,0.47
2019-01-26T18:02:56.576Z,1.07
2019-01-26T18:05:24.673Z,1.80
2019-01-26T18:07:53.455Z,0.90
2019-01-26T18:10:25.429Z,0.60
2019-01-26T18:12:54.275Z,0.60
2019-01-26T18:15:22.443Z,0.97
2019-01-26T18:17:50.862Z,0.63
2019-01-26T18:20:20.213Z,4.37
2019-01-26T18:22:49.264Z,1.73
2019-01-26T18:25:17.728Z,0.97
2019-01-26T18:27:46.134Z,1.07
2019-01-26T18:30:18.611Z,0.60
2019-01-26T18:32:47.052Z,0.83
2019-01-26T18:35:15.383Z,0.77
2019-01-26T18:37:43.476Z,0.60
2019-01-26T18:40:17.728Z,0.93
2019-01-26T18:42:45.829Z,0.50
2019-01-26T18:45:17.139Z,0.80
2019-01-26T18:47:46.938Z,1.03
2019-01-26T18:50:18.235Z,1.03
2019-01-26T18:52:46.646Z,1.43
2019-01-26T18:55:15.176Z,0.80
2019-01-26T18:57:43.261Z,1.10
2019-01-26T19:00:13.192Z,0.67
2019-01-26T19:02:42.076Z,1.10
2019-01-26T19:05:14.018Z,2.20
2019-01-26T19:07:42.421Z,3.80
2019-01-26T19:10:12.548Z,1.97
2019-01-26T19:12:40.960Z,1.17
2019-01-26T19:15:21.649Z,2.03
2019-01-26T19:17:50.064Z,0.57
2019-01-26T19:20:18.524Z,1.10
2019-01-26T19:22:46.612Z,1.13
2019-01-26T19:25:19.676Z,1.10
2019-01-26T19:27:48.513Z,0.60
2019-01-26T19:30:22.139Z,1.93
2019-01-26T19:32:50.609Z,1.03
2019-01-26T19:35:19.038Z,2.87
2019-01-26T19:37:47.425Z,4.00
2019-01-26T19:40:22.326Z,14.33
2019-01-26T19:42:50.399Z,3.17
2019-01-26T19:45:24.558Z,13.43
2019-01-26T19:47:52.947Z,7.47
2019-01-26T19:50:23.106Z,0.60
2019-01-26T19:52:52.150Z,0.60
2019-01-26T19:55:22.271Z,1.40
2019-01-26T19:57:51.042Z,0.83
2019-01-26T20:00:19.517Z,1.20
2019-01-26T20:02:48.012Z,1.03
2019-01-26T20:05:24.176Z,0.70
2019-01-26T20:07:52.663Z,1.00
2019-01-26T20:10:21.508Z,1.13
2019-01-26T20:12:49.580Z,1.90
2019-01-26T20:15:19.224Z,1.37
2019-01-26T20:17:48.000Z,3.30
2019-01-26T20:20:25.698Z,1.50
2019-01-26T20:22:54.096Z,1.20
2019-01-26T20:25:22.164Z,2.03
2019-01-26T20:27:50.713Z,1.30
2019-01-26T20:30:25.165Z,1.37
2019-01-26T20:32:53.823Z,1.23
2019-01-26T20:35:22.485Z,1.17
2019-01-26T20:37:50.876Z,1.97
2019-01-26T20:40:19.824Z,0.90
2019-01-26T20:42:47.896Z,1.10
2019-01-26T20:45:19.608Z,1.77
2019-01-26T20:47:47.680Z,1.80
2019-01-26T20:50:16.253Z,1.43
2019-01-26T20:52:44.407Z,1.83
2019-01-26T20:55:12.986Z,2.60
2019-01-26T20:57:41.385Z,1.63
2019-01-26T21:00:11.004Z,5.30
2019-01-26T21:02:39.394Z,1.67
2019-01-26T21:05:10.136Z,1.50
2019-01-26T21:07:38.909Z,2.47
2019-01-26T21:10:08.531Z,1.73
2019-01-26T21:12:36.997Z,1.83
2019-01-26T21:15:08.161Z,5.30
2019-01-26T21:17:36.556Z,2.00
2019-01-26T21:20:08.045Z,2.40
2019-01-26T21:22:36.436Z,3.40
2019-01-26T21:25:06.059Z,3.60
2019-01-26T21:27:34.454Z,3.50
2019-01-26T21:30:02.857Z,3.13
2019-01-26T21:32:31.124Z,3.73
2019-01-26T21:34:59.511Z,3.53
2019-01-26T21:37:27.903Z,2.70
2019-01-26T21:39:55.976Z,3.73
2019-01-26T21:42:24.044Z,3.23
2019-01-26T21:44:52.521Z,2.27
2019-01-26T21:47:20.932Z,4.20
2019-01-26T21:49:49.180Z,2.10
2019-01-26T21:52:17.600Z,3.87
2019-01-26T21:54:45.680Z,3.60
2019-01-26T21:57:14.090Z,2.20
2019-01-26T21:59:42.143Z,2.47
2019-01-26T22:02:10.552Z,3.10
2019-01-26T22:04:38.626Z,2.73
2019-01-26T22:07:07.049Z,4.10
2019-01-26T22:09:35.445Z,4.17
2019-01-26T22:12:04.612Z,3.97
2019-01-26T22:14:33.004Z,2.07
2019-01-26T22:17:01.409Z,3.50
2019-01-26T22:19:29.810Z,2.43
2019-01-26T22:21:58.216Z,3.07
2019-01-26T22:24:26.612Z,2.80
2019-01-26T22:26:55.036Z,2.03
2019-01-26T22:29:23.432Z,2.40
2019-01-26T22:31:51.843Z,1.73
2019-01-26T22:34:20.244Z,3.50
2019-01-26T22:36:48.655Z,1.40
2019-01-26T22:39:36.396Z,2.60
2019-01-26T22:42:05.138Z,1.63
2019-01-26T22:44:33.209Z,1.57
2019-01-26T22:47:01.611Z,1.60
2019-01-26T22:49:30.008Z,1.60
2019-01-26T22:51:58.413Z,2.87
2019-01-26T22:54:26.809Z,1.50
2019-01-26T22:56:55.211Z,4.20
2019-01-26T22:59:23.599Z,1.00
2019-01-26T23:01:52.371Z,1.83
2019-01-26T23:04:47.332Z,1.63
2019-01-26T23:07:22.683Z,1.20
2019-01-26T23:09:54.164Z,1.30
2019-01-26T23:12:30.122Z,2.37
2019-01-26T23:15:19.635Z,1.40
2019-01-26T23:18:03.145Z,4.80
2019-01-26T23:20:34.622Z,3.10
2019-01-26T23:23:14.802Z,3.43
2019-01-26T23:25:44.488Z,1.57
2019-01-26T23:28:14.105Z,2.37
2019-01-26T23:31:14.443Z,1.87
2019-01-26T23:33:43.584Z,1.70
2019-01-26T23:36:12.413Z,2.50
2019-01-26T23:38:40.508Z,1.90
2019-01-26T23:41:08.859Z,1.50
2019-01-26T23:43:36.933Z,1.93
2019-01-26T23:46:05.471Z,2.57
2019-01-26T23:48:34.220Z,2.47
2019-01-26T23:51:02.623Z,1.13
2019-01-26T23:53:31.028Z,1.03
2019-01-26T23:56:02.536Z,1.90
2019-01-26T23:58:49.952Z,1.90
